Hattiesburg South, Mississippi
Current Conditions -  °F | °C
As of 3:53 PM on Friday 24 Oct 2014 (Local Time) from KHBG Reporting Station
Clear Clear  
Wind Chill: 76°   Ceiling: Unl
Heat Index: 76°   Visibility: 10mi
Dew Point: 46°   Wind: 7mph
Humidity: 35%   Direction: 360°N
Pressure: 30.05"   Gusts: NA
Location:  31.1996°N, 89.2694°W
Report Text: KHBG 242053Z AUTO 36006KT 10SM CLR 24/08 A3005 RMK AO2 SLP174 T02440078 56013
Loading
Personal Weather Stations






























Interactive Weather Map
Tropical Storm Tracking
New forecast layout! Learn more

10-Day Weather Forecast

Advertisements
Track Severe Weather on mobile